sensor_id;sensor_type;location;lat;lon;timestamp;temperature;humidity
30308;DHT22;17114;52.314;8.910;2022-12-18T00:01:27;-6.60;99.90
30308;DHT22;17114;52.314;8.910;2022-12-18T00:03:55;-6.60;99.90
30308;DHT22;17114;52.314;8.910;2022-12-18T00:06:24;-6.60;99.90
30308;DHT22;17114;52.314;8.910;2022-12-18T00:08:52;-6.60;99.90
30308;DHT22;17114;52.314;8.910;2022-12-18T00:11:24;-6.50;99.90
30308;DHT22;17114;52.314;8.910;2022-12-18T00:13:54;-6.50;99.90
30308;DHT22;17114;52.314;8.910;2022-12-18T00:16:23;-6.50;99.90
30308;DHT22;17114;52.314;8.910;2022-12-18T00:18:53;-6.50;99.90
30308;DHT22;17114;52.314;8.910;2022-12-18T00:21:20;-6.50;99.90
30308;DHT22;17114;52.314;8.910;2022-12-18T00:23:48;-6.50;99.90
30308;DHT22;17114;52.314;8.910;2022-12-18T00:26:19;-6.50;99.90
30308;DHT22;17114;52.314;8.910;2022-12-18T00:28:46;-6.50;99.90
30308;DHT22;17114;52.314;8.910;2022-12-18T00:31:21;-6.50;99.90
30308;DHT22;17114;52.314;8.910;2022-12-18T00:33:48;-6.50;99.90
30308;DHT22;17114;52.314;8.910;2022-12-18T00:36:23;-6.30;99.90
30308;DHT22;17114;52.314;8.910;2022-12-18T00:38:51;-6.30;99.90
30308;DHT22;17114;52.314;8.910;2022-12-18T00:41:19;-6.20;99.90
30308;DHT22;17114;52.314;8.910;2022-12-18T00:44:06;-6.10;99.90
30308;DHT22;17114;52.314;8.910;2022-12-18T00:46:34;-6.00;99.90
30308;DHT22;17114;52.314;8.910;2022-12-18T00:49:01;-5.90;99.90
30308;DHT22;17114;52.314;8.910;2022-12-18T00:51:28;-6.00;99.90
30308;DHT22;17114;52.314;8.910;2022-12-18T00:53:55;-6.10;99.90
30308;DHT22;17114;52.314;8.910;2022-12-18T00:56:22;-6.20;99.90
30308;DHT22;17114;52.314;8.910;2022-12-18T00:58:49;-6.30;99.90
30308;DHT22;17114;52.314;8.910;2022-12-18T01:01:16;-6.40;99.90
30308;DHT22;17114;52.314;8.910;2022-12-18T01:03:43;-6.40;99.90
30308;DHT22;17114;52.314;8.910;2022-12-18T01:06:13;-6.50;99.90
30308;DHT22;17114;52.314;8.910;2022-12-18T01:08:57;-6.60;99.90
30308;DHT22;17114;52.314;8.910;2022-12-18T01:11:24;-6.50;99.90
30308;DHT22;17114;52.314;8.910;2022-12-18T01:13:54;-6.70;99.90
30308;DHT22;17114;52.314;8.910;2022-12-18T01:16:22;-6.80;99.90
30308;DHT22;17114;52.314;8.910;2022-12-18T01:18:52;-6.80;99.90
30308;DHT22;17114;52.314;8.910;2022-12-18T01:21:20;-6.90;99.90
30308;DHT22;17114;52.314;8.910;2022-12-18T01:23:51;-6.90;99.90
30308;DHT22;17114;52.314;8.910;2022-12-18T01:26:19;-7.00;99.90
30308;DHT22;17114;52.314;8.910;2022-12-18T01:28:46;-7.00;99.90
30308;DHT22;17114;52.314;8.910;2022-12-18T01:31:33;-7.10;99.90
30308;DHT22;17114;52.314;8.910;2022-12-18T01:34:01;-7.10;99.90
30308;DHT22;17114;52.314;8.910;2022-12-18T01:36:30;-7.00;99.90
30308;DHT22;17114;52.314;8.910;2022-12-18T01:39:04;-6.90;99.90
30308;DHT22;17114;52.314;8.910;2022-12-18T01:41:32;-6.90;99.90
30308;DHT22;17114;52.314;8.910;2022-12-18T01:47:26;-6.80;99.90
30308;DHT22;17114;52.314;8.910;2022-12-18T01:49:54;-6.80;99.90
30308;DHT22;17114;52.314;8.910;2022-12-18T01:52:24;-6.80;99.90
30308;DHT22;17114;52.314;8.910;2022-12-18T01:54:53;-6.90;99.90
30308;DHT22;17114;52.314;8.910;2022-12-18T01:57:21;-6.90;99.90
30308;DHT22;17114;52.314;8.910;2022-12-18T01:59:52;-7.10;99.90
30308;DHT22;17114;52.314;8.910;2022-12-18T02:02:20;-7.20;99.90
30308;DHT22;17114;52.314;8.910;2022-12-18T02:04:48;-7.20;99.90
30308;DHT22;17114;52.314;8.910;2022-12-18T02:10:22;-7.50;99.90
30308;DHT22;17114;52.314;8.910;2022-12-18T02:18:35;-7.80;99.90
30308;DHT22;17114;52.314;8.910;2022-12-18T02:26:36;-7.90;99.90
30308;DHT22;17114;52.314;8.910;2022-12-18T02:29:18;-8.00;99.90
30308;DHT22;17114;52.314;8.910;2022-12-18T02:31:56;-8.10;99.90
30308;DHT22;17114;52.314;8.910;2022-12-18T02:34:30;-8.20;99.90
30308;DHT22;17114;52.314;8.910;2022-12-18T02:36:58;-8.20;99.90
30308;DHT22;17114;52.314;8.910;2022-12-18T02:39:27;-8.30;99.90
30308;DHT22;17114;52.314;8.910;2022-12-18T02:41:57;-8.40;99.90
30308;DHT22;17114;52.314;8.910;2022-12-18T02:44:24;-8.40;99.90
30308;DHT22;17114;52.314;8.910;2022-12-18T02:46:53;-8.50;99.90
30308;DHT22;17114;52.314;8.910;2022-12-18T02:49:36;-8.50;99.90
30308;DHT22;17114;52.314;8.910;2022-12-18T02:54:57;-8.60;99.90
30308;DHT22;17114;52.314;8.910;2022-12-18T02:57:36;-8.70;99.90
30308;DHT22;17114;52.314;8.910;2022-12-18T03:00:11;-8.70;99.90
30308;DHT22;17114;52.314;8.910;2022-12-18T03:05:21;-8.80;99.90
30308;DHT22;17114;52.314;8.910;2022-12-18T03:08:26;-8.80;99.90
30308;DHT22;17114;52.314;8.910;2022-12-18T03:11:32;-8.80;99.90
30308;DHT22;17114;52.314;8.910;2022-12-18T03:13:48;-8.90;99.90
30308;DHT22;17114;52.314;8.910;2022-12-18T03:16:27;-8.90;99.90
30308;DHT22;17114;52.314;8.910;2022-12-18T03:19:18;-8.90;99.90
30308;DHT22;17114;52.314;8.910;2022-12-18T03:21:46;-9.00;99.90
30308;DHT22;17114;52.314;8.910;2022-12-18T03:24:14;-9.00;99.90
30308;DHT22;17114;52.314;8.910;2022-12-18T03:26:45;-9.10;99.90
30308;DHT22;17114;52.314;8.910;2022-12-18T03:32:06;-9.10;99.90
30308;DHT22;17114;52.314;8.910;2022-12-18T03:34:38;-9.10;99.90
30308;DHT22;17114;52.314;8.910;2022-12-18T03:37:06;-9.20;99.90
30308;DHT22;17114;52.314;8.910;2022-12-18T03:39:34;-9.20;99.90
30308;DHT22;17114;52.314;8.910;2022-12-18T03:42:25;-9.20;99.90
30308;DHT22;17114;52.314;8.910;2022-12-18T03:45:20;-9.20;99.90
30308;DHT22;17114;52.314;8.910;2022-12-18T03:50:55;-9.20;99.90
30308;DHT22;17114;52.314;8.910;2022-12-18T03:53:57;-9.20;99.90
30308;DHT22;17114;52.314;8.910;2022-12-18T03:56:28;-9.20;99.90
30308;DHT22;17114;52.314;8.910;2022-12-18T03:58:57;-9.20;99.90
30308;DHT22;17114;52.314;8.910;2022-12-18T04:01:37;-9.20;99.90
30308;DHT22;17114;52.314;8.910;2022-12-18T04:04:06;-9.20;99.90
30308;DHT22;17114;52.314;8.910;2022-12-18T04:06:35;-9.20;99.90
30308;DHT22;17114;52.314;8.910;2022-12-18T04:09:04;-9.20;99.90
30308;DHT22;17114;52.314;8.910;2022-12-18T04:11:31;-9.20;99.90
30308;DHT22;17114;52.314;8.910;2022-12-18T04:13:58;-9.20;99.90
30308;DHT22;17114;52.314;8.910;2022-12-18T04:16:26;-9.30;99.90
30308;DHT22;17114;52.314;8.910;2022-12-18T04:18:53;-9.30;99.90
30308;DHT22;17114;52.314;8.910;2022-12-18T04:21:20;-9.30;99.90
30308;DHT22;17114;52.314;8.910;2022-12-18T04:23:47;-9.40;99.90
30308;DHT22;17114;52.314;8.910;2022-12-18T04:26:14;-9.40;99.90
30308;DHT22;17114;52.314;8.910;2022-12-18T04:28:40;-9.40;99.90
30308;DHT22;17114;52.314;8.910;2022-12-18T04:31:07;-9.50;99.90
30308;DHT22;17114;52.314;8.910;2022-12-18T04:33:34;-9.50;99.90
30308;DHT22;17114;52.314;8.910;2022-12-18T04:36:01;-9.50;99.90
30308;DHT22;17114;52.314;8.910;2022-12-18T04:38:28;-9.50;99.90
30308;DHT22;17114;52.314;8.910;2022-12-18T04:40:55;-9.50;99.90
30308;DHT22;17114;52.314;8.910;2022-12-18T04:43:22;-9.50;99.90
30308;DHT22;17114;52.314;8.910;2022-12-18T04:45:49;-9.60;99.90
30308;DHT22;17114;52.314;8.910;2022-12-18T04:48:15;-9.60;99.90
30308;DHT22;17114;52.314;8.910;2022-12-18T04:50:42;-9.60;99.90
30308;DHT22;17114;52.314;8.910;2022-12-18T04:53:09;-9.60;99.90
30308;DHT22;17114;52.314;8.910;2022-12-18T04:55:36;-9.60;99.90
30308;DHT22;17114;52.314;8.910;2022-12-18T04:58:03;-9.50;99.90
30308;DHT22;17114;52.314;8.910;2022-12-18T05:00:30;-9.50;99.90
30308;DHT22;17114;52.314;8.910;2022-12-18T05:02:56;-9.50;99.90
30308;DHT22;17114;52.314;8.910;2022-12-18T05:05:23;-9.50;99.90
30308;DHT22;17114;52.314;8.910;2022-12-18T05:07:50;-9.50;99.90
30308;DHT22;17114;52.314;8.910;2022-12-18T05:10:17;-9.50;99.90
30308;DHT22;17114;52.314;8.910;2022-12-18T05:12:44;-9.50;99.90
30308;DHT22;17114;52.314;8.910;2022-12-18T05:15:28;-9.50;99.90
30308;DHT22;17114;52.314;8.910;2022-12-18T05:17:56;-9.60;99.90
30308;DHT22;17114;52.314;8.910;2022-12-18T05:20:24;-9.60;99.90
30308;DHT22;17114;52.314;8.910;2022-12-18T05:22:51;-9.60;99.90
30308;DHT22;17114;52.314;8.910;2022-12-18T05:25:19;-9.50;99.90
30308;DHT22;17114;52.314;8.910;2022-12-18T05:27:46;-9.40;99.90
30308;DHT22;17114;52.314;8.910;2022-12-18T05:30:14;-9.10;99.90
30308;DHT22;17114;52.314;8.910;2022-12-18T05:32:41;-8.70;99.90
30308;DHT22;17114;52.314;8.910;2022-12-18T05:35:09;-8.50;99.90
30308;DHT22;17114;52.314;8.910;2022-12-18T05:37:36;-8.30;99.90
30308;DHT22;17114;52.314;8.910;2022-12-18T05:40:09;-8.20;99.90
30308;DHT22;17114;52.314;8.910;2022-12-18T05:42:36;-8.20;99.90
30308;DHT22;17114;52.314;8.910;2022-12-18T05:45:04;-8.10;99.90
30308;DHT22;17114;52.314;8.910;2022-12-18T05:47:31;-8.00;99.90
30308;DHT22;17114;52.314;8.910;2022-12-18T05:49:57;-7.90;99.90
30308;DHT22;17114;52.314;8.910;2022-12-18T05:52:24;-7.60;99.90
30308;DHT22;17114;52.314;8.910;2022-12-18T05:54:51;-7.30;99.90
30308;DHT22;17114;52.314;8.910;2022-12-18T05:57:18;-7.10;99.90
30308;DHT22;17114;52.314;8.910;2022-12-18T05:59:45;-7.00;99.90
30308;DHT22;17114;52.314;8.910;2022-12-18T06:02:11;-7.00;99.90
30308;DHT22;17114;52.314;8.910;2022-12-18T06:04:38;-6.90;99.90
30308;DHT22;17114;52.314;8.910;2022-12-18T06:07:05;-6.90;99.90
30308;DHT22;17114;52.314;8.910;2022-12-18T06:09:32;-7.00;99.90
30308;DHT22;17114;52.314;8.910;2022-12-18T06:11:59;-7.00;99.90
30308;DHT22;17114;52.314;8.910;2022-12-18T06:14:25;-7.00;99.90
30308;DHT22;17114;52.314;8.910;2022-12-18T06:16:52;-7.00;99.90
30308;DHT22;17114;52.314;8.910;2022-12-18T06:19:19;-7.00;99.90
30308;DHT22;17114;52.314;8.910;2022-12-18T06:21:46;-7.00;99.90
30308;DHT22;17114;52.314;8.910;2022-12-18T06:24:13;-7.00;99.90
30308;DHT22;17114;52.314;8.910;2022-12-18T06:26:41;-7.10;99.90
30308;DHT22;17114;52.314;8.910;2022-12-18T06:29:09;-7.10;99.90
30308;DHT22;17114;52.314;8.910;2022-12-18T06:31:38;-7.20;99.90
30308;DHT22;17114;52.314;8.910;2022-12-18T06:34:05;-7.30;99.90
30308;DHT22;17114;52.314;8.910;2022-12-18T06:36:32;-7.40;99.90
30308;DHT22;17114;52.314;8.910;2022-12-18T06:38:59;-7.60;99.90
30308;DHT22;17114;52.314;8.910;2022-12-18T06:41:26;-7.70;99.90
30308;DHT22;17114;52.314;8.910;2022-12-18T06:43:53;-7.90;99.90
30308;DHT22;17114;52.314;8.910;2022-12-18T06:46:25;-8.00;99.90
30308;DHT22;17114;52.314;8.910;2022-12-18T06:48:52;-8.10;99.90
30308;DHT22;17114;52.314;8.910;2022-12-18T06:51:20;-8.10;99.90
30308;DHT22;17114;52.314;8.910;2022-12-18T06:53:47;-8.20;99.90
30308;DHT22;17114;52.314;8.910;2022-12-18T06:56:14;-8.20;99.90
30308;DHT22;17114;52.314;8.910;2022-12-18T06:58:41;-8.20;99.90
30308;DHT22;17114;52.314;8.910;2022-12-18T07:01:10;-8.20;99.90
30308;DHT22;17114;52.314;8.910;2022-12-18T07:03:39;-8.30;99.90
30308;DHT22;17114;52.314;8.910;2022-12-18T07:06:17;-8.40;99.90
30308;DHT22;17114;52.314;8.910;2022-12-18T07:08:45;-8.50;99.90
30308;DHT22;17114;52.314;8.910;2022-12-18T07:11:13;-8.50;99.90
30308;DHT22;17114;52.314;8.910;2022-12-18T07:13:39;-8.60;99.90
30308;DHT22;17114;52.314;8.910;2022-12-18T07:16:13;-8.60;99.90
30308;DHT22;17114;52.314;8.910;2022-12-18T07:18:49;-8.70;99.90
30308;DHT22;17114;52.314;8.910;2022-12-18T07:21:18;-8.70;99.90
30308;DHT22;17114;52.314;8.910;2022-12-18T07:23:46;-8.70;99.90
30308;DHT22;17114;52.314;8.910;2022-12-18T07:26:18;-8.70;99.90
30308;DHT22;17114;52.314;8.910;2022-12-18T07:28:45;-8.70;99.90
30308;DHT22;17114;52.314;8.910;2022-12-18T07:31:14;-8.80;99.90
30308;DHT22;17114;52.314;8.910;2022-12-18T07:33:43;-8.80;99.90
30308;DHT22;17114;52.314;8.910;2022-12-18T07:36:10;-8.80;99.90
30308;DHT22;17114;52.314;8.910;2022-12-18T07:38:37;-8.90;99.90
30308;DHT22;17114;52.314;8.910;2022-12-18T07:41:10;-9.00;99.90
30308;DHT22;17114;52.314;8.910;2022-12-18T07:43:38;-8.90;99.90
30308;DHT22;17114;52.314;8.910;2022-12-18T07:46:08;-9.00;99.90
30308;DHT22;17114;52.314;8.910;2022-12-18T07:48:35;-9.00;99.90
30308;DHT22;17114;52.314;8.910;2022-12-18T07:51:05;-9.00;99.90
30308;DHT22;17114;52.314;8.910;2022-12-18T07:53:33;-9.00;99.90
30308;DHT22;17114;52.314;8.910;2022-12-18T07:56:04;-9.00;99.90
30308;DHT22;17114;52.314;8.910;2022-12-18T07:58:53;-8.90;99.90
30308;DHT22;17114;52.314;8.910;2022-12-18T08:01:20;-8.80;99.90
30308;DHT22;17114;52.314;8.910;2022-12-18T08:03:48;-8.70;99.90
30308;DHT22;17114;52.314;8.910;2022-12-18T08:06:18;-8.50;99.90
30308;DHT22;17114;52.314;8.910;2022-12-18T08:08:51;-8.30;99.90
30308;DHT22;17114;52.314;8.910;2022-12-18T08:11:21;-8.00;99.90
30308;DHT22;17114;52.314;8.910;2022-12-18T08:13:49;-7.30;99.90
30308;DHT22;17114;52.314;8.910;2022-12-18T08:16:16;-6.80;99.90
30308;DHT22;17114;52.314;8.910;2022-12-18T08:18:43;-6.30;99.90
30308;DHT22;17114;52.314;8.910;2022-12-18T08:21:15;-5.70;99.90
30308;DHT22;17114;52.314;8.910;2022-12-18T08:23:43;-5.20;99.90
30308;DHT22;17114;52.314;8.910;2022-12-18T08:26:11;-4.90;99.90
30308;DHT22;17114;52.314;8.910;2022-12-18T08:28:38;-4.60;99.90
30308;DHT22;17114;52.314;8.910;2022-12-18T08:31:06;-4.40;99.90
30308;DHT22;17114;52.314;8.910;2022-12-18T08:33:34;-4.10;99.90
30308;DHT22;17114;52.314;8.910;2022-12-18T08:36:01;-4.00;99.90
30308;DHT22;17114;52.314;8.910;2022-12-18T08:38:28;-3.90;99.90
30308;DHT22;17114;52.314;8.910;2022-12-18T08:41:03;-3.80;99.90
30308;DHT22;17114;52.314;8.910;2022-12-18T08:43:31;-3.80;99.90
30308;DHT22;17114;52.314;8.910;2022-12-18T08:46:17;-3.80;99.90
30308;DHT22;17114;52.314;8.910;2022-12-18T08:48:45;-3.70;99.90
30308;DHT22;17114;52.314;8.910;2022-12-18T08:51:12;-3.60;99.90
30308;DHT22;17114;52.314;8.910;2022-12-18T08:53:40;-3.60;99.90
30308;DHT22;17114;52.314;8.910;2022-12-18T08:56:08;-3.60;99.90
30308;DHT22;17114;52.314;8.910;2022-12-18T08:58:34;-3.40;99.90
30308;DHT22;17114;52.314;8.910;2022-12-18T09:01:03;-3.30;99.90
30308;DHT22;17114;52.314;8.910;2022-12-18T09:03:31;-3.30;99.90
30308;DHT22;17114;52.314;8.910;2022-12-18T09:05:58;-3.30;99.90
30308;DHT22;17114;52.314;8.910;2022-12-18T09:08:26;-3.20;99.90
30308;DHT22;17114;52.314;8.910;2022-12-18T09:10:53;-3.20;99.90
30308;DHT22;17114;52.314;8.910;2022-12-18T09:13:20;-3.00;99.90
30308;DHT22;17114;52.314;8.910;2022-12-18T09:15:49;-2.80;99.90
30308;DHT22;17114;52.314;8.910;2022-12-18T09:18:18;-2.60;99.90
30308;DHT22;17114;52.314;8.910;2022-12-18T09:20:45;-2.10;99.90
30308;DHT22;17114;52.314;8.910;2022-12-18T09:23:12;-1.90;99.90
30308;DHT22;17114;52.314;8.910;2022-12-18T09:25:39;-1.70;99.90
30308;DHT22;17114;52.314;8.910;2022-12-18T09:28:16;-1.40;99.90
30308;DHT22;17114;52.314;8.910;2022-12-18T09:30:48;-1.20;99.90
30308;DHT22;17114;52.314;8.910;2022-12-18T09:33:16;-1.10;99.90
30308;DHT22;17114;52.314;8.910;2022-12-18T09:35:44;-1.00;99.90
30308;DHT22;17114;52.314;8.910;2022-12-18T09:38:14;-1.00;99.90
30308;DHT22;17114;52.314;8.910;2022-12-18T09:40:47;-1.10;99.90
30308;DHT22;17114;52.314;8.910;2022-12-18T09:43:20;-0.90;99.90
30308;DHT22;17114;52.314;8.910;2022-12-18T09:45:52;-0.90;99.90
30308;DHT22;17114;52.314;8.910;2022-12-18T09:48:30;-0.90;99.90
30308;DHT22;17114;52.314;8.910;2022-12-18T09:51:02;-0.80;99.90
30308;DHT22;17114;52.314;8.910;2022-12-18T09:53:34;-0.80;99.90
30308;DHT22;17114;52.314;8.910;2022-12-18T09:56:04;-0.80;99.90
30308;DHT22;17114;52.314;8.910;2022-12-18T09:58:39;-0.80;99.90
30308;DHT22;17114;52.314;8.910;2022-12-18T10:01:15;-0.80;99.90
30308;DHT22;17114;52.314;8.910;2022-12-18T10:03:45;-0.80;99.90
30308;DHT22;17114;52.314;8.910;2022-12-18T10:17:43;-0.20;99.90
30308;DHT22;17114;52.314;8.910;2022-12-18T10:25:40;0.00;99.90
30308;DHT22;17114;52.314;8.910;2022-12-18T10:28:15;0.10;99.90
30308;DHT22;17114;52.314;8.910;2022-12-18T10:30:43;0.20;99.90
30308;DHT22;17114;52.314;8.910;2022-12-18T10:33:27;0.40;99.90
30308;DHT22;17114;52.314;8.910;2022-12-18T10:35:55;0.60;99.90
30308;DHT22;17114;52.314;8.910;2022-12-18T10:38:28;0.50;99.90
30308;DHT22;17114;52.314;8.910;2022-12-18T10:43:37;0.70;99.90
30308;DHT22;17114;52.314;8.910;2022-12-18T10:51:33;0.90;99.90
30308;DHT22;17114;52.314;8.910;2022-12-18T10:54:06;0.80;99.90
30308;DHT22;17114;52.314;8.910;2022-12-18T10:56:39;0.80;99.90
30308;DHT22;17114;52.314;8.910;2022-12-18T10:59:09;0.70;99.90
30308;DHT22;17114;52.314;8.910;2022-12-18T11:01:48;0.80;99.90
30308;DHT22;17114;52.314;8.910;2022-12-18T11:04:27;0.70;99.90
30308;DHT22;17114;52.314;8.910;2022-12-18T11:09:24;0.70;99.90
30308;DHT22;17114;52.314;8.910;2022-12-18T11:11:53;0.70;99.90
30308;DHT22;17114;52.314;8.910;2022-12-18T11:14:24;0.70;99.90
30308;DHT22;17114;52.314;8.910;2022-12-18T11:16:52;0.70;99.90
30308;DHT22;17114;52.314;8.910;2022-12-18T11:19:41;0.70;99.90
30308;DHT22;17114;52.314;8.910;2022-12-18T11:22:26;0.60;99.90
30308;DHT22;17114;52.314;8.910;2022-12-18T11:25:18;0.70;99.90
30308;DHT22;17114;52.314;8.910;2022-12-18T11:28:02;0.70;99.90
30308;DHT22;17114;52.314;8.910;2022-12-18T11:30:36;0.70;99.90
30308;DHT22;17114;52.314;8.910;2022-12-18T11:33:11;0.70;99.90
30308;DHT22;17114;52.314;8.910;2022-12-18T11:36:01;0.60;99.90
30308;DHT22;17114;52.314;8.910;2022-12-18T11:38:35;0.60;99.90
30308;DHT22;17114;52.314;8.910;2022-12-18T11:41:23;0.50;99.90
30308;DHT22;17114;52.314;8.910;2022-12-18T11:44:15;0.40;99.90
30308;DHT22;17114;52.314;8.910;2022-12-18T11:46:51;0.30;99.90
30308;DHT22;17114;52.314;8.910;2022-12-18T11:49:26;0.20;99.90
30308;DHT22;17114;52.314;8.910;2022-12-18T11:52:18;0.10;99.90
30308;DHT22;17114;52.314;8.910;2022-12-18T11:54:55;0.10;99.90
30308;DHT22;17114;52.314;8.910;2022-12-18T12:11:46;-0.30;99.90
30308;DHT22;17114;52.314;8.910;2022-12-18T12:33:46;-0.50;99.90
30308;DHT22;17114;52.314;8.910;2022-12-18T12:36:38;-0.50;99.90
30308;DHT22;17114;52.314;8.910;2022-12-18T12:39:11;-0.40;99.90
30308;DHT22;17114;52.314;8.910;2022-12-18T12:41:42;-0.40;99.90
30308;DHT22;17114;52.314;8.910;2022-12-18T12:44:33;-0.40;99.90
30308;DHT22;17114;52.314;8.910;2022-12-18T12:47:13;-0.30;99.90
30308;DHT22;17114;52.314;8.910;2022-12-18T12:49:46;-0.40;99.90
30308;DHT22;17114;52.314;8.910;2022-12-18T12:54:56;-0.40;99.90
30308;DHT22;17114;52.314;8.910;2022-12-18T12:57:48;-0.30;99.90
30308;DHT22;17114;52.314;8.910;2022-12-18T13:00:19;-0.30;99.90
30308;DHT22;17114;52.314;8.910;2022-12-18T13:05:53;-0.40;99.90
30308;DHT22;17114;52.314;8.910;2022-12-18T13:08:32;-0.30;99.90
30308;DHT22;17114;52.314;8.910;2022-12-18T13:11:02;-0.40;99.90
30308;DHT22;17114;52.314;8.910;2022-12-18T13:13:53;-0.40;99.90
30308;DHT22;17114;52.314;8.910;2022-12-18T13:16:25;-0.40;99.90
30308;DHT22;17114;52.314;8.910;2022-12-18T13:18:55;-0.40;99.90
30308;DHT22;17114;52.314;8.910;2022-12-18T13:21:29;-0.40;99.90
30308;DHT22;17114;52.314;8.910;2022-12-18T13:24:47;-0.40;99.90
30308;DHT22;17114;52.314;8.910;2022-12-18T13:38:32;-0.40;99.90
30308;DHT22;17114;52.314;8.910;2022-12-18T13:41:26;-0.50;99.90
30308;DHT22;17114;52.314;8.910;2022-12-18T13:43:55;-0.50;99.90
30308;DHT22;17114;52.314;8.910;2022-12-18T13:51:44;-0.40;99.90
30308;DHT22;17114;52.314;8.910;2022-12-18T13:56:52;-0.30;99.90
30308;DHT22;17114;52.314;8.910;2022-12-18T13:59:35;-0.40;99.90
30308;DHT22;17114;52.314;8.910;2022-12-18T14:02:18;-0.40;99.90
30308;DHT22;17114;52.314;8.910;2022-12-18T14:04:48;-0.40;99.90
30308;DHT22;17114;52.314;8.910;2022-12-18T14:09:49;-0.40;99.90
30308;DHT22;17114;52.314;8.910;2022-12-18T14:12:26;-0.50;99.90
30308;DHT22;17114;52.314;8.910;2022-12-18T14:18:03;-0.50;99.90
30308;DHT22;17114;52.314;8.910;2022-12-18T14:20:37;-0.50;99.90
30308;DHT22;17114;52.314;8.910;2022-12-18T14:23:28;-0.40;99.90
30308;DHT22;17114;52.314;8.910;2022-12-18T14:25:56;-0.40;99.90
30308;DHT22;17114;52.314;8.910;2022-12-18T14:28:31;-0.50;99.90
30308;DHT22;17114;52.314;8.910;2022-12-18T14:30:58;-0.50;99.90
30308;DHT22;17114;52.314;8.910;2022-12-18T14:33:27;-0.50;99.90
30308;DHT22;17114;52.314;8.910;2022-12-18T14:38:36;-0.50;99.90
30308;DHT22;17114;52.314;8.910;2022-12-18T14:41:11;-0.40;99.90
30308;DHT22;17114;52.314;8.910;2022-12-18T14:43:40;-0.50;99.90
30308;DHT22;17114;52.314;8.910;2022-12-18T14:48:56;-0.50;99.90
30308;DHT22;17114;52.314;8.910;2022-12-18T14:51:26;-0.50;99.90
30308;DHT22;17114;52.314;8.910;2022-12-18T14:56:25;-0.60;99.90
30308;DHT22;17114;52.314;8.910;2022-12-18T14:59:06;-0.60;99.90
30308;DHT22;17114;52.314;8.910;2022-12-18T15:01:46;-0.60;99.90
30308;DHT22;17114;52.314;8.910;2022-12-18T15:04:40;-0.60;99.90
30308;DHT22;17114;52.314;8.910;2022-12-18T15:07:21;-0.70;99.90
30308;DHT22;17114;52.314;8.910;2022-12-18T15:10:20;-0.70;99.90
30308;DHT22;17114;52.314;8.910;2022-12-18T15:13:07;-0.70;99.90
30308;DHT22;17114;52.314;8.910;2022-12-18T15:20:45;-0.70;99.90
30308;DHT22;17114;52.314;8.910;2022-12-18T15:23:19;-0.80;99.90
30308;DHT22;17114;52.314;8.910;2022-12-18T15:25:48;-0.80;99.90
30308;DHT22;17114;52.314;8.910;2022-12-18T15:28:19;-0.80;99.90
30308;DHT22;17114;52.314;8.910;2022-12-18T15:33:38;-0.70;99.90
30308;DHT22;17114;52.314;8.910;2022-12-18T15:36:15;-0.70;99.90
30308;DHT22;17114;52.314;8.910;2022-12-18T15:38:52;-0.80;99.90
30308;DHT22;17114;52.314;8.910;2022-12-18T15:41:21;-0.80;99.90
30308;DHT22;17114;52.314;8.910;2022-12-18T15:43:52;-0.80;99.90
30308;DHT22;17114;52.314;8.910;2022-12-18T15:46:21;-0.80;99.90
30308;DHT22;17114;52.314;8.910;2022-12-18T15:48:53;-0.90;99.90
30308;DHT22;17114;52.314;8.910;2022-12-18T15:51:35;-0.90;99.90
30308;DHT22;17114;52.314;8.910;2022-12-18T15:54:05;-0.90;99.90
30308;DHT22;17114;52.314;8.910;2022-12-18T15:56:32;-0.80;99.90
30308;DHT22;17114;52.314;8.910;2022-12-18T15:59:19;-0.80;99.90
30308;DHT22;17114;52.314;8.910;2022-12-18T16:01:48;-0.80;99.90
30308;DHT22;17114;52.314;8.910;2022-12-18T16:04:18;-0.80;99.90
30308;DHT22;17114;52.314;8.910;2022-12-18T16:06:48;-0.80;99.90
30308;DHT22;17114;52.314;8.910;2022-12-18T16:09:36;-0.80;99.90
30308;DHT22;17114;52.314;8.910;2022-12-18T16:12:03;-0.80;99.90
30308;DHT22;17114;52.314;8.910;2022-12-18T16:14:31;-0.80;99.90
30308;DHT22;17114;52.314;8.910;2022-12-18T16:16:59;-0.80;99.90
30308;DHT22;17114;52.314;8.910;2022-12-18T16:19:27;-0.80;99.90
30308;DHT22;17114;52.314;8.910;2022-12-18T16:21:56;-0.90;99.90
30308;DHT22;17114;52.314;8.910;2022-12-18T16:24:28;-0.80;99.90
30308;DHT22;17114;52.314;8.910;2022-12-18T16:26:57;-0.80;99.90
30308;DHT22;17114;52.314;8.910;2022-12-18T16:29:27;-0.70;99.90
30308;DHT22;17114;52.314;8.910;2022-12-18T16:31:58;-0.80;99.90
30308;DHT22;17114;52.314;8.910;2022-12-18T16:34:36;-0.80;99.90
30308;DHT22;17114;52.314;8.910;2022-12-18T16:37:07;-0.80;99.90
30308;DHT22;17114;52.314;8.910;2022-12-18T16:39:35;-0.80;99.90
30308;DHT22;17114;52.314;8.910;2022-12-18T16:42:05;-0.80;99.90
30308;DHT22;17114;52.314;8.910;2022-12-18T16:44:35;-0.80;99.90
30308;DHT22;17114;52.314;8.910;2022-12-18T16:47:03;-0.70;99.90
30308;DHT22;17114;52.314;8.910;2022-12-18T16:49:30;-0.70;99.90
30308;DHT22;17114;52.314;8.910;2022-12-18T16:51:57;-0.70;99.90
30308;DHT22;17114;52.314;8.910;2022-12-18T16:54:28;-0.60;99.90
30308;DHT22;17114;52.314;8.910;2022-12-18T16:56:56;-0.60;99.90
30308;DHT22;17114;52.314;8.910;2022-12-18T16:59:23;-0.60;99.90
30308;DHT22;17114;52.314;8.910;2022-12-18T17:01:52;-0.60;99.90
30308;DHT22;17114;52.314;8.910;2022-12-18T17:04:19;-0.50;99.90
30308;DHT22;17114;52.314;8.910;2022-12-18T17:06:46;-0.50;99.90
30308;DHT22;17114;52.314;8.910;2022-12-18T17:09:18;-0.40;99.90
30308;DHT22;17114;52.314;8.910;2022-12-18T17:11:55;-0.20;99.90
30308;DHT22;17114;52.314;8.910;2022-12-18T17:14:23;-0.30;99.90
30308;DHT22;17114;52.314;8.910;2022-12-18T17:16:54;-0.30;99.90
30308;DHT22;17114;52.314;8.910;2022-12-18T17:19:46;-0.20;99.90
30308;DHT22;17114;52.314;8.910;2022-12-18T17:22:13;-0.10;99.90
30308;DHT22;17114;52.314;8.910;2022-12-18T17:24:40;-0.10;99.90
30308;DHT22;17114;52.314;8.910;2022-12-18T17:27:06;0.00;99.90
30308;DHT22;17114;52.314;8.910;2022-12-18T17:29:34;0.10;99.90
30308;DHT22;17114;52.314;8.910;2022-12-18T17:32:01;0.00;99.90
30308;DHT22;17114;52.314;8.910;2022-12-18T17:34:28;0.00;99.90
30308;DHT22;17114;52.314;8.910;2022-12-18T17:36:56;0.10;99.90
30308;DHT22;17114;52.314;8.910;2022-12-18T17:39:23;0.10;99.90
30308;DHT22;17114;52.314;8.910;2022-12-18T17:41:50;0.10;99.90
30308;DHT22;17114;52.314;8.910;2022-12-18T17:44:17;0.10;99.90
30308;DHT22;17114;52.314;8.910;2022-12-18T17:46:44;0.10;99.90
30308;DHT22;17114;52.314;8.910;2022-12-18T17:49:14;0.20;99.90
30308;DHT22;17114;52.314;8.910;2022-12-18T17:51:41;0.20;99.90
30308;DHT22;17114;52.314;8.910;2022-12-18T17:54:09;0.30;99.90
30308;DHT22;17114;52.314;8.910;2022-12-18T17:56:37;0.30;99.90
30308;DHT22;17114;52.314;8.910;2022-12-18T17:59:04;0.30;99.90
30308;DHT22;17114;52.314;8.910;2022-12-18T18:01:32;0.30;99.90
30308;DHT22;17114;52.314;8.910;2022-12-18T18:04:03;0.30;99.90
30308;DHT22;17114;52.314;8.910;2022-12-18T18:06:30;0.30;99.90
30308;DHT22;17114;52.314;8.910;2022-12-18T18:08:59;0.30;99.90
30308;DHT22;17114;52.314;8.910;2022-12-18T18:11:27;0.40;99.90
30308;DHT22;17114;52.314;8.910;2022-12-18T18:14:15;0.30;99.90
30308;DHT22;17114;52.314;8.910;2022-12-18T18:16:45;0.30;99.90